createdAt,value
2023-04-05T00:02:02.646Z,4.40
2023-04-05T00:04:34.230Z,4.60
2023-04-05T00:07:02.021Z,4.30
2023-04-05T00:09:28.928Z,4.40
2023-04-05T00:11:56.529Z,4.00
2023-04-05T00:14:23.522Z,4.20
2023-04-05T00:16:50.577Z,4.40
2023-04-05T00:19:17.402Z,4.10
2023-04-05T00:21:48.195Z,4.20
2023-04-05T00:24:15.293Z,3.90
2023-04-05T00:26:43.635Z,4.10
2023-04-05T00:29:10.589Z,3.90
2023-04-05T00:31:37.396Z,3.60
2023-04-05T00:34:08.668Z,3.50
2023-04-05T00:36:37.137Z,3.40
2023-04-05T00:39:03.874Z,3.50
2023-04-05T00:41:32.352Z,3.10
2023-04-05T00:43:59.413Z,3.60
2023-04-05T00:46:34.601Z,3.60
2023-04-05T00:49:02.349Z,3.40
2023-04-05T00:51:30.682Z,3.10
2023-04-05T00:53:58.342Z,3.30
2023-04-05T00:56:25.212Z,3.40
2023-04-05T00:58:56.979Z,3.50
2023-04-05T01:01:25.992Z,3.00
2023-04-05T01:03:59.266Z,3.10
2023-04-05T01:06:57.604Z,3.10
2023-04-05T01:09:46.662Z,3.10
2023-04-05T01:12:17.705Z,3.10
2023-04-05T01:14:46.920Z,2.80
2023-04-05T01:17:15.832Z,2.80
2023-04-05T01:19:47.651Z,2.70
2023-04-05T01:22:37.436Z,3.00
2023-04-05T01:25:27.822Z,3.00
2023-04-05T01:27:57.493Z,2.60
2023-04-05T01:30:30.414Z,2.70
2023-04-05T01:33:23.476Z,2.50
2023-04-05T01:36:17.508Z,3.00
2023-04-05T01:38:46.442Z,2.20
2023-04-05T01:41:13.921Z,2.60
2023-04-05T01:43:42.189Z,2.60
2023-04-05T01:46:09.291Z,2.40
2023-04-05T01:48:36.169Z,2.40
2023-04-05T01:51:03.227Z,2.60
2023-04-05T01:53:30.365Z,2.50
2023-04-05T01:56:01.156Z,2.70
2023-04-05T01:58:28.581Z,2.40
2023-04-05T02:00:55.873Z,2.60
2023-04-05T02:03:24.336Z,3.00
2023-04-05T02:05:53.077Z,2.90
2023-04-05T02:08:20.327Z,2.40
2023-04-05T02:10:49.114Z,2.50
2023-04-05T02:13:16.697Z,2.60
2023-04-05T02:15:50.485Z,2.10
2023-04-05T02:18:21.829Z,2.30
2023-04-05T02:20:51.878Z,2.50
2023-04-05T02:23:19.745Z,2.40
2023-04-05T02:25:46.860Z,2.50
2023-04-05T02:28:13.497Z,2.60
2023-04-05T02:30:40.761Z,2.20
2023-04-05T02:33:12.070Z,2.70
2023-04-05T02:35:38.902Z,2.70
2023-04-05T02:38:06.584Z,2.40
2023-04-05T02:40:34.193Z,2.30
2023-04-05T02:43:01.442Z,2.70
2023-04-05T02:45:28.214Z,2.40
2023-04-05T02:47:57.284Z,2.30
2023-04-05T02:50:24.332Z,2.30
2023-04-05T02:52:51.435Z,2.30
2023-04-05T02:55:19.936Z,2.60
2023-04-05T02:57:47.190Z,2.60
2023-04-05T03:00:37.958Z,2.30
2023-04-05T03:03:05.213Z,2.50
2023-04-05T03:05:33.599Z,2.50
2023-04-05T03:08:01.878Z,2.30
2023-04-05T03:10:35.482Z,2.40
2023-04-05T03:13:08.460Z,2.20
2023-04-05T03:15:38.792Z,2.70
2023-04-05T03:18:09.216Z,2.10
2023-04-05T03:20:41.053Z,2.40
2023-04-05T03:23:13.675Z,2.10
2023-04-05T03:25:41.439Z,2.10
2023-04-05T03:28:09.997Z,2.10
2023-04-05T03:30:39.906Z,2.00
2023-04-05T03:33:19.991Z,2.10
2023-04-05T03:35:49.894Z,2.30
2023-04-05T03:38:17.458Z,2.40
2023-04-05T03:40:52.586Z,2.10
2023-04-05T03:43:20.661Z,2.40
2023-04-05T03:45:47.836Z,2.30
2023-04-05T03:48:19.951Z,2.30
2023-04-05T03:50:48.058Z,2.20
2023-04-05T03:53:19.885Z,2.50
2023-04-05T03:55:49.865Z,2.20
2023-04-05T03:58:18.709Z,2.10
2023-04-05T04:00:47.175Z,2.10
2023-04-05T04:03:18.208Z,2.30
2023-04-05T04:05:47.380Z,2.20
2023-04-05T04:08:16.496Z,1.90
2023-04-05T04:10:43.540Z,2.00
2023-04-05T04:13:22.981Z,1.80
2023-04-05T04:15:58.997Z,1.80
2023-04-05T04:18:36.728Z,1.80
2023-04-05T04:21:24.469Z,1.80
2023-04-05T04:24:03.083Z,1.70
2023-04-05T04:26:47.357Z,1.80
2023-04-05T04:29:31.208Z,2.00
2023-04-05T04:32:26.414Z,1.80
2023-04-05T04:35:04.744Z,2.20
2023-04-05T04:38:00.715Z,1.90
2023-04-05T04:40:54.030Z,1.90
2023-04-05T04:43:44.734Z,1.90
2023-04-05T04:46:42.037Z,1.50
2023-04-05T04:49:16.763Z,2.10
2023-04-05T04:51:46.096Z,2.10
2023-04-05T04:54:12.980Z,1.80
2023-04-05T04:56:41.351Z,1.90
2023-04-05T04:59:08.414Z,1.80
2023-04-05T05:01:40.496Z,2.30
2023-04-05T05:04:09.751Z,2.10
2023-04-05T05:06:38.687Z,2.30
2023-04-05T05:09:05.984Z,2.50
2023-04-05T05:11:40.181Z,2.10
2023-04-05T05:14:10.582Z,2.40
2023-04-05T05:16:37.992Z,2.40
2023-04-05T05:19:06.373Z,3.10
2023-04-05T05:21:48.926Z,2.30
2023-04-05T05:24:21.782Z,2.10
2023-04-05T05:26:48.641Z,2.00
2023-04-05T05:29:17.442Z,2.60
2023-04-05T05:31:45.829Z,1.60
2023-04-05T05:34:13.090Z,1.80
2023-04-05T05:36:43.531Z,1.80
2023-04-05T05:39:11.195Z,2.60
2023-04-05T05:41:38.508Z,2.20
2023-04-05T05:44:06.270Z,2.10
2023-04-05T05:46:33.870Z,2.10
2023-04-05T05:49:01.131Z,2.10
2023-04-05T05:51:27.916Z,1.80
2023-04-05T05:53:55.482Z,1.80
2023-04-05T05:56:22.432Z,1.90
2023-04-05T05:58:50.109Z,2.00
2023-04-05T06:01:17.050Z,1.90
2023-04-05T06:03:44.987Z,1.80
2023-04-05T06:06:12.392Z,1.90
2023-04-05T06:08:39.525Z,1.90
2023-04-05T06:11:06.573Z,1.90
2023-04-05T06:13:33.701Z,1.90
2023-04-05T06:16:05.957Z,1.70
2023-04-05T06:18:33.747Z,2.00
2023-04-05T06:21:00.791Z,1.90
2023-04-05T06:23:28.474Z,2.30
2023-04-05T06:25:56.394Z,1.90
2023-04-05T06:28:23.084Z,2.10
2023-04-05T06:30:51.440Z,2.10
2023-04-05T06:33:19.210Z,2.10
2023-04-05T06:35:46.201Z,2.10
2023-04-05T06:38:14.397Z,2.40
2023-04-05T06:40:41.844Z,2.20
2023-04-05T06:43:12.760Z,2.10
2023-04-05T06:45:41.398Z,2.40
2023-04-05T06:48:11.519Z,2.20
2023-04-05T06:50:41.665Z,2.50
2023-04-05T06:53:09.688Z,2.10
2023-04-05T06:55:36.637Z,2.30
2023-04-05T06:58:03.908Z,2.20
2023-04-05T07:00:33.565Z,2.50
2023-04-05T07:03:20.964Z,2.30
2023-04-05T07:05:54.548Z,2.60
2023-04-05T07:08:30.379Z,2.50
2023-04-05T07:11:00.452Z,2.70
2023-04-05T07:13:27.565Z,2.40
2023-04-05T07:16:01.165Z,2.80
2023-04-05T07:18:29.664Z,2.30
2023-04-05T07:21:01.647Z,2.30
2023-04-05T07:23:34.828Z,2.40
2023-04-05T07:26:04.476Z,2.30
2023-04-05T07:28:33.545Z,2.50
2023-04-05T07:31:01.674Z,2.60
2023-04-05T07:33:30.469Z,2.80
2023-04-05T07:35:58.085Z,2.80
2023-04-05T07:38:26.271Z,2.80
2023-04-05T07:40:53.363Z,2.50
2023-04-05T07:43:20.372Z,2.80
2023-04-05T07:45:47.403Z,2.80
2023-04-05T07:48:14.690Z,2.90
2023-04-05T07:50:47.040Z,3.20
2023-04-05T07:53:14.405Z,2.80
2023-04-05T07:55:41.685Z,3.10
2023-04-05T07:58:10.633Z,3.00
2023-04-05T08:00:38.958Z,3.10
2023-04-05T08:03:07.808Z,3.10
2023-04-05T08:05:35.655Z,3.30
2023-04-05T08:08:02.807Z,3.60
2023-04-05T08:10:31.341Z,4.00
2023-04-05T08:12:58.645Z,3.60
2023-04-05T08:15:27.635Z,3.80
2023-04-05T08:18:01.728Z,3.70
2023-04-05T08:20:29.920Z,3.30
2023-04-05T08:22:57.143Z,3.50
2023-04-05T08:25:24.213Z,3.60
2023-04-05T08:27:51.600Z,3.40
2023-04-05T08:30:19.445Z,3.60
2023-04-05T08:32:47.444Z,2.90
2023-04-05T08:35:15.788Z,3.10
2023-04-05T08:45:51.327Z,2.80
2023-04-05T08:48:20.690Z,3.30
2023-04-05T08:50:52.459Z,2.90
2023-04-05T08:53:21.033Z,2.70
2023-04-05T08:55:50.208Z,2.80
2023-04-05T08:58:21.201Z,2.60
2023-04-05T09:00:51.954Z,2.60
2023-04-05T09:03:23.633Z,2.90
2023-04-05T09:05:54.027Z,2.00
2023-04-05T09:08:25.174Z,2.50
2023-04-05T09:10:54.736Z,2.20
2023-04-05T09:13:22.081Z,2.20
2023-04-05T09:15:49.718Z,2.10
2023-04-05T09:18:26.939Z,2.30
2023-04-05T09:21:07.183Z,3.10
2023-04-05T09:31:35.307Z,2.10
2023-04-05T09:34:08.392Z,2.60
2023-04-05T09:36:44.042Z,2.60
2023-04-05T09:39:12.023Z,2.50
2023-04-05T09:41:39.171Z,2.50
2023-04-05T09:44:06.776Z,2.30
2023-04-05T09:46:38.207Z,2.60
2023-04-05T09:49:07.519Z,2.60
2023-04-05T09:51:35.756Z,2.90
2023-04-05T09:54:06.091Z,2.90
2023-04-05T09:56:38.271Z,2.90
2023-04-05T09:59:13.056Z,3.10
2023-04-05T10:01:43.898Z,3.10
2023-04-05T10:04:11.746Z,2.80
2023-04-05T10:06:40.751Z,2.60
2023-04-05T10:09:09.980Z,2.70
2023-04-05T10:11:38.022Z,2.60
2023-04-05T10:14:06.822Z,2.90
2023-04-05T10:16:57.816Z,3.00
2023-04-05T10:20:11.336Z,2.90
2023-04-05T10:23:10.962Z,2.60
2023-04-05T10:25:53.794Z,3.40
2023-04-05T10:28:31.312Z,2.80
2023-04-05T10:31:11.827Z,3.10
2023-04-05T10:33:43.090Z,2.80
2023-04-05T10:36:16.930Z,3.00
2023-04-05T10:38:53.147Z,3.10
2023-04-05T10:41:20.447Z,2.50
2023-04-05T10:43:47.616Z,2.90
2023-04-05T10:46:15.000Z,3.10
2023-04-05T10:48:50.063Z,3.40
2023-04-05T10:51:17.523Z,4.00
2023-04-05T10:53:44.757Z,3.50
2023-04-05T10:56:11.757Z,3.80
2023-04-05T10:58:40.065Z,3.80
2023-04-05T11:01:07.532Z,3.90
2023-04-05T11:03:41.511Z,3.60
2023-04-05T11:06:23.129Z,3.70
2023-04-05T11:08:55.286Z,3.70
2023-04-05T11:11:23.127Z,4.00
2023-04-05T11:13:55.533Z,3.50
2023-04-05T11:16:23.587Z,3.90
2023-04-05T11:18:52.802Z,4.00
2023-04-05T11:21:24.988Z,4.20
2023-04-05T11:24:06.547Z,4.50
2023-04-05T11:26:40.129Z,4.20
2023-04-05T11:29:07.649Z,4.20
2023-04-05T11:31:34.786Z,4.70
2023-04-05T11:34:12.437Z,4.50
2023-04-05T11:36:47.571Z,4.10
2023-04-05T11:39:17.660Z,4.30
2023-04-05T11:41:47.663Z,3.90
2023-04-05T11:44:15.798Z,4.30
2023-04-05T11:46:45.383Z,4.50
2023-04-05T11:49:13.186Z,4.90
2023-04-05T11:51:42.493Z,4.70
2023-04-05T11:54:10.093Z,4.70
2023-04-05T11:56:41.493Z,4.40
2023-04-05T11:59:13.494Z,4.80
2023-04-05T12:01:45.079Z,4.70
2023-04-05T12:04:14.481Z,4.90
2023-04-05T12:06:41.445Z,4.70
2023-04-05T12:09:08.599Z,4.80
2023-04-05T12:11:40.683Z,5.30
2023-04-05T12:14:07.824Z,5.50
2023-04-05T12:17:10.585Z,5.30
2023-04-05T12:19:37.966Z,5.40
2023-04-05T12:22:05.188Z,4.80
2023-04-05T12:24:32.527Z,5.10
2023-04-05T12:27:01.165Z,5.30
2023-04-05T12:29:51.467Z,5.20
2023-04-05T12:32:18.467Z,5.20
2023-04-05T12:34:47.364Z,5.60
2023-04-05T12:37:16.451Z,5.60
2023-04-05T12:39:43.414Z,5.50
2023-04-05T12:42:16.728Z,5.30
2023-04-05T12:44:43.545Z,5.40
2023-04-05T12:47:10.953Z,5.80
2023-04-05T12:49:39.008Z,6.00
2023-04-05T12:52:06.251Z,5.30
2023-04-05T12:54:33.573Z,5.40
2023-04-05T12:57:01.500Z,6.00
2023-04-05T12:59:28.820Z,5.90
2023-04-05T13:01:55.955Z,5.70
2023-04-05T13:04:22.794Z,5.50
2023-04-05T13:06:50.461Z,5.30
2023-04-05T13:09:17.786Z,5.40
2023-04-05T13:11:44.644Z,5.50
2023-04-05T13:14:13.651Z,5.60
2023-04-05T13:16:41.126Z,5.30
2023-04-05T13:19:08.172Z,5.70
2023-04-05T13:21:35.478Z,5.60
2023-04-05T13:24:02.253Z,5.50
2023-04-05T13:26:29.301Z,5.40
2023-04-05T13:28:56.241Z,5.70
2023-04-05T13:31:23.032Z,5.70
2023-04-05T13:33:49.958Z,5.80
2023-04-05T13:36:16.933Z,5.50
2023-04-05T13:38:45.329Z,5.60
2023-04-05T13:41:13.595Z,5.70
2023-04-05T13:43:40.479Z,6.50
2023-04-05T13:46:07.941Z,6.10
2023-04-05T13:48:35.148Z,6.80
2023-04-05T13:51:05.689Z,6.70
2023-04-05T13:53:32.930Z,6.40
2023-04-05T13:55:59.693Z,6.30
2023-04-05T13:58:28.041Z,6.30
2023-04-05T14:00:54.988Z,6.40
2023-04-05T14:03:24.007Z,7.10
2023-04-05T14:05:53.070Z,6.70
2023-04-05T14:08:21.655Z,6.40
2023-04-05T14:10:51.165Z,6.70
2023-04-05T14:13:19.484Z,6.30
2023-04-05T14:15:46.606Z,6.30
2023-04-05T14:18:17.443Z,6.30
2023-04-05T14:20:45.387Z,6.80
2023-04-05T14:23:13.964Z,6.50
2023-04-05T14:25:41.893Z,6.70
2023-04-05T14:28:08.875Z,6.90
2023-04-05T14:30:38.842Z,6.70
2023-04-05T14:33:06.776Z,7.00
2023-04-05T14:35:33.840Z,7.10
2023-04-05T14:38:03.223Z,7.10
2023-04-05T14:40:30.364Z,7.30
2023-04-05T14:42:57.818Z,6.90
2023-04-05T14:45:27.884Z,7.70
2023-04-05T14:47:55.287Z,7.80
2023-04-05T14:50:25.219Z,7.60
2023-04-05T14:52:52.975Z,7.00
2023-04-05T14:55:19.819Z,7.30
2023-04-05T14:57:46.767Z,8.10
2023-04-05T15:00:14.645Z,8.10
2023-04-05T15:03:01.434Z,8.60
2023-04-05T15:05:30.539Z,9.20
2023-04-05T15:07:57.452Z,9.20
2023-04-05T15:10:38.456Z,9.00
2023-04-05T15:13:05.595Z,9.10
2023-04-05T15:15:32.312Z,8.50
2023-04-05T15:18:02.784Z,8.60
2023-04-05T15:20:30.409Z,9.20
2023-04-05T15:22:57.590Z,9.00
2023-04-05T15:25:24.514Z,8.90
2023-04-05T15:27:52.002Z,9.70
2023-04-05T15:30:19.336Z,9.40
2023-04-05T15:32:46.378Z,9.00
2023-04-05T15:35:13.342Z,8.90
2023-04-05T15:37:42.123Z,9.00
2023-04-05T15:40:09.942Z,9.10
2023-04-05T15:42:36.655Z,10.00
2023-04-05T15:45:04.877Z,9.80
2023-04-05T15:47:31.995Z,9.30
2023-04-05T15:49:59.078Z,9.90
2023-04-05T15:52:26.025Z,9.40
2023-04-05T15:54:53.275Z,10.60
2023-04-05T15:57:20.216Z,9.70
2023-04-05T15:59:47.049Z,10.20
2023-04-05T16:02:14.079Z,11.50
2023-04-05T16:04:41.389Z,10.70
2023-04-05T16:07:09.323Z,10.20
2023-04-05T16:09:36.585Z,11.50
2023-04-05T16:12:03.944Z,11.30
2023-04-05T16:14:33.641Z,11.50
2023-04-05T16:17:01.444Z,10.50
2023-04-05T16:19:28.728Z,11.60
2023-04-05T16:21:56.468Z,11.20
2023-04-05T16:24:23.674Z,12.10
2023-04-05T16:26:50.638Z,12.40
2023-04-05T16:29:17.583Z,11.60
2023-04-05T16:31:46.874Z,12.40
2023-04-05T16:34:15.207Z,11.70
2023-04-05T16:36:42.185Z,12.40
2023-04-05T16:39:09.024Z,12.50
2023-04-05T16:41:37.133Z,12.00
2023-04-05T16:44:04.148Z,13.20
2023-04-05T16:46:31.989Z,13.40
2023-04-05T16:48:59.393Z,13.20
2023-04-05T16:51:27.354Z,13.30
2023-04-05T16:53:54.909Z,12.40
2023-04-05T16:56:23.815Z,12.30
2023-04-05T16:58:51.395Z,12.90
2023-04-05T17:01:18.683Z,12.70
2023-04-05T17:03:46.609Z,12.90
2023-04-05T17:06:14.089Z,12.50
2023-04-05T17:08:41.783Z,13.80
2023-04-05T17:11:08.628Z,12.80
2023-04-05T17:13:38.787Z,14.00
2023-04-05T17:16:06.854Z,12.40
2023-04-05T17:18:33.856Z,14.60
2023-04-05T17:21:03.256Z,12.80
2023-04-05T17:23:30.090Z,13.60
2023-04-05T17:25:56.945Z,14.10
2023-04-05T17:28:25.253Z,12.80
2023-04-05T17:30:52.280Z,13.60
2023-04-05T17:33:27.299Z,13.90
2023-04-05T17:35:54.544Z,13.20
2023-04-05T17:38:22.322Z,13.50
2023-04-05T17:40:51.753Z,13.70
2023-04-05T17:43:19.283Z,13.90
2023-04-05T17:45:46.569Z,13.70
2023-04-05T17:48:13.502Z,13.30
2023-04-05T17:50:45.488Z,14.40
2023-04-05T17:53:13.838Z,13.40
2023-04-05T17:55:40.658Z,14.40
2023-04-05T17:58:07.617Z,14.70
2023-04-05T18:00:34.557Z,14.20
2023-04-05T18:03:05.918Z,14.80
2023-04-05T18:05:34.501Z,14.90
2023-04-05T18:08:01.415Z,12.50
2023-04-05T18:10:28.700Z,14.30
2023-04-05T18:12:55.933Z,15.40
2023-04-05T18:15:25.463Z,14.90
2023-04-05T18:17:52.959Z,14.40
2023-04-05T18:20:20.697Z,15.00
2023-04-05T18:22:59.990Z,15.70
2023-04-05T18:25:30.209Z,15.10
2023-04-05T18:27:58.283Z,15.20
2023-04-05T18:30:26.256Z,14.50
2023-04-05T18:32:54.165Z,14.90
2023-04-05T18:35:21.773Z,15.30
2023-04-05T18:37:48.705Z,15.60
2023-04-05T18:40:15.756Z,15.70
2023-04-05T18:42:44.848Z,16.20
2023-04-05T18:45:12.200Z,16.90
2023-04-05T18:47:39.379Z,15.30
2023-04-05T18:50:09.366Z,15.50
2023-04-05T18:52:37.056Z,17.20
2023-04-05T18:55:04.883Z,15.70
2023-04-05T18:57:31.939Z,16.20
2023-04-05T18:59:58.995Z,16.20
2023-04-05T19:02:26.079Z,16.50
2023-04-05T19:04:54.904Z,16.70
2023-04-05T19:07:22.601Z,16.50
2023-04-05T19:09:49.737Z,15.70
2023-04-05T19:12:16.629Z,16.40
2023-04-05T19:14:48.549Z,16.80
2023-04-05T19:17:16.612Z,16.20
2023-04-05T19:19:43.367Z,17.70
2023-04-05T19:22:11.150Z,16.00
2023-04-05T19:24:39.917Z,16.90
2023-04-05T19:27:06.770Z,17.10
2023-04-05T19:29:35.561Z,17.90
2023-04-05T19:32:02.514Z,17.00
2023-04-05T19:34:30.445Z,17.30
2023-04-05T19:36:58.210Z,18.30
2023-04-05T19:39:25.977Z,18.30
2023-04-05T19:41:57.145Z,17.40
2023-04-05T19:44:50.972Z,17.90
2023-04-05T19:47:20.545Z,18.10
2023-04-05T19:49:48.870Z,16.70
2023-04-05T19:52:34.274Z,17.80
2023-04-05T19:55:08.016Z,17.00
2023-04-05T19:57:40.830Z,18.10
2023-04-05T20:00:31.021Z,17.40
2023-04-05T20:02:59.151Z,17.90
2023-04-05T20:05:41.709Z,17.50
2023-04-05T20:10:40.104Z,17.30
2023-04-05T20:13:11.862Z,16.90
2023-04-05T20:15:39.129Z,17.30
2023-04-05T20:18:06.228Z,16.40
2023-04-05T20:20:35.046Z,17.10
2023-04-05T20:23:07.669Z,16.40
2023-04-05T20:25:39.287Z,17.20
2023-04-05T20:28:38.729Z,16.70
2023-04-05T20:31:08.101Z,16.80
2023-04-05T20:33:45.720Z,16.40
2023-04-05T20:36:13.119Z,17.00
2023-04-05T20:38:41.924Z,16.50
2023-04-05T20:41:09.585Z,15.30
2023-04-05T20:43:37.044Z,16.20
2023-04-05T20:46:05.735Z,16.00
2023-04-05T20:48:33.622Z,16.20
2023-04-05T20:51:02.895Z,16.00
2023-04-05T20:53:30.227Z,15.20
2023-04-05T20:55:58.520Z,15.80
2023-04-05T20:58:27.376Z,16.50
2023-04-05T21:00:55.282Z,15.40
2023-04-05T21:03:41.380Z,15.40
2023-04-05T21:06:09.884Z,16.20
2023-04-05T21:08:40.421Z,15.80
2023-04-05T21:11:11.248Z,15.60
2023-04-05T21:13:38.777Z,15.40
2023-04-05T21:16:06.155Z,16.20
2023-04-05T21:18:35.832Z,15.40
2023-04-05T21:21:02.986Z,15.90
2023-04-05T21:23:31.202Z,16.00
2023-04-05T21:25:59.348Z,16.60
2023-04-05T21:28:26.241Z,15.40
2023-04-05T21:30:54.556Z,16.30
2023-04-05T21:33:22.482Z,15.50
2023-04-05T21:35:50.224Z,15.30
2023-04-05T21:38:18.863Z,15.50
2023-04-05T21:40:46.222Z,15.50
2023-04-05T21:43:15.182Z,14.00
2023-04-05T21:45:43.395Z,13.80
2023-04-05T21:48:10.478Z,14.80
2023-04-05T21:50:38.958Z,13.90
2023-04-05T21:53:06.774Z,15.20
2023-04-05T21:55:34.827Z,14.10
2023-04-05T21:58:02.407Z,14.80
2023-04-05T22:00:29.322Z,14.40
2023-04-05T22:03:00.820Z,13.50
2023-04-05T22:05:37.406Z,14.00
2023-04-05T22:08:07.018Z,14.60
2023-04-05T22:10:35.178Z,14.10
2023-04-05T22:13:02.138Z,14.10
2023-04-05T22:15:30.058Z,14.00
2023-04-05T22:17:56.841Z,13.20
2023-04-05T22:20:23.607Z,13.60
2023-04-05T22:22:50.899Z,14.30
2023-04-05T22:25:19.339Z,13.60
2023-04-05T22:27:46.853Z,13.30
2023-04-05T22:30:14.089Z,12.90
2023-04-05T22:32:41.775Z,14.00
2023-04-05T22:35:09.807Z,13.60
2023-04-05T22:37:37.780Z,12.50
2023-04-05T22:40:05.556Z,13.00
2023-04-05T22:42:34.690Z,13.80
2023-04-05T22:45:02.923Z,13.10
2023-04-05T22:47:30.696Z,13.50
2023-04-05T22:49:57.534Z,12.80
2023-04-05T22:52:24.673Z,13.20
2023-04-05T22:54:51.532Z,12.80
2023-04-05T22:57:18.554Z,13.00
2023-04-05T22:59:45.508Z,13.10
2023-04-05T23:02:13.381Z,12.90
2023-04-05T23:04:40.963Z,12.80
2023-04-05T23:07:08.012Z,12.80
2023-04-05T23:09:35.273Z,12.50
2023-04-05T23:12:04.234Z,12.10
2023-04-05T23:14:31.138Z,11.90
2023-04-05T23:16:58.020Z,11.50
2023-04-05T23:19:25.603Z,12.10
2023-04-05T23:21:53.175Z,12.00
2023-04-05T23:24:19.863Z,12.40
2023-04-05T23:26:46.804Z,11.60
2023-04-05T23:29:14.822Z,12.70
2023-04-05T23:31:42.734Z,12.00
2023-04-05T23:34:09.993Z,12.70
2023-04-05T23:36:38.167Z,11.50
2023-04-05T23:39:05.173Z,11.30
2023-04-05T23:41:32.058Z,12.00
2023-04-05T23:43:59.541Z,12.00
2023-04-05T23:46:26.581Z,11.30
2023-04-05T23:48:53.344Z,11.70
2023-04-05T23:51:20.549Z,12.30
2023-04-05T23:53:47.389Z,10.50
2023-04-05T23:56:14.983Z,11.30
2023-04-05T23:58:41.848Z,10.60
